createdAt,value
2018-12-13T00:01:00.172Z,15.03
2018-12-13T00:03:29.173Z,14.53
2018-12-13T00:05:58.674Z,13.93
2018-12-13T00:08:27.842Z,15.50
2018-12-13T00:10:56.870Z,13.03
2018-12-13T00:13:26.056Z,18.07
2018-12-13T00:15:55.048Z,13.63
2018-12-13T00:18:24.117Z,13.53
2018-12-13T00:20:53.103Z,16.00
2018-12-13T00:23:22.376Z,14.57
2018-12-13T00:25:51.412Z,15.10
2018-12-13T00:28:20.588Z,13.77
2018-12-13T00:30:49.272Z,13.17
2018-12-13T00:33:18.783Z,14.70
2018-12-13T00:35:48.395Z,15.73
2018-12-13T00:38:17.391Z,14.20
2018-12-13T00:40:46.390Z,14.97
2018-12-13T00:43:15.401Z,14.53
2018-12-13T00:45:44.426Z,15.23
2018-12-13T00:48:13.452Z,12.87
2018-12-13T00:50:42.554Z,14.23
2018-12-13T00:53:11.552Z,14.63
2018-12-13T00:55:40.724Z,14.73
2018-12-13T00:58:09.736Z,15.80
2018-12-13T01:00:38.731Z,17.30
2018-12-13T01:03:07.757Z,15.13
2018-12-13T01:05:36.457Z,15.90
2018-12-13T01:08:05.590Z,19.33
2018-12-13T01:10:34.704Z,14.20
2018-12-13T01:13:04.604Z,15.53
2018-12-13T01:15:34.340Z,13.47
2018-12-13T01:18:03.489Z,15.10
2018-12-13T01:20:32.463Z,16.63
2018-12-13T01:23:01.526Z,16.57
2018-12-13T01:25:30.525Z,16.83
2018-12-13T01:27:59.243Z,15.90
2018-12-13T01:30:27.883Z,15.83
2018-12-13T01:32:57.000Z,19.67
2018-12-13T01:35:26.001Z,17.40
2018-12-13T01:37:55.000Z,16.90
2018-12-13T01:40:23.664Z,18.87
2018-12-13T01:42:52.307Z,18.47
2018-12-13T01:45:21.224Z,18.80
2018-12-13T01:47:50.240Z,18.07
2018-12-13T01:50:19.232Z,17.63
2018-12-13T01:52:48.441Z,18.03
2018-12-13T01:55:17.426Z,17.10
2018-12-13T01:57:46.496Z,15.60
2018-12-13T02:00:15.506Z,16.53
2018-12-13T02:02:44.561Z,15.50
2018-12-13T02:05:13.559Z,13.97
2018-12-13T02:07:42.588Z,11.90
2018-12-13T02:10:11.880Z,11.67
2018-12-13T02:12:40.923Z,10.67
2018-12-13T02:15:10.103Z,9.70
2018-12-13T02:17:39.355Z,9.87
2018-12-13T02:20:08.701Z,9.10
2018-12-13T02:22:37.929Z,9.97
2018-12-13T02:25:07.149Z,7.23
2018-12-13T02:27:36.386Z,8.73
2018-12-13T02:30:06.121Z,7.90
2018-12-13T02:32:35.305Z,7.30
2018-12-13T02:35:04.091Z,8.87
2018-12-13T02:37:33.044Z,8.63
2018-12-13T02:40:01.733Z,10.20
2018-12-13T02:42:30.636Z,9.00
2018-12-13T02:45:00.084Z,7.03
2018-12-13T02:47:28.691Z,6.93
2018-12-13T02:49:57.597Z,8.27
2018-12-13T02:52:26.875Z,6.63
2018-12-13T02:54:55.644Z,7.43
2018-12-13T02:57:24.300Z,7.43
2018-12-13T02:59:53.431Z,7.53
2018-12-13T03:02:23.319Z,7.80
2018-12-13T03:04:53.088Z,8.33
2018-12-13T03:07:22.130Z,8.53
2018-12-13T03:09:51.094Z,9.27
2018-12-13T03:12:19.826Z,8.93
2018-12-13T03:14:48.707Z,10.17
2018-12-13T03:17:17.739Z,9.63
2018-12-13T03:19:46.432Z,8.67
2018-12-13T03:22:15.410Z,7.07
2018-12-13T03:24:44.793Z,10.50
2018-12-13T03:27:13.816Z,10.03
2018-12-13T03:29:42.835Z,8.37
2018-12-13T03:32:12.045Z,10.17
2018-12-13T03:34:41.402Z,11.60
2018-12-13T03:37:10.540Z,12.37
2018-12-13T03:39:39.310Z,10.83
2018-12-13T03:42:08.177Z,8.07
2018-12-13T03:44:37.367Z,10.77
2018-12-13T03:47:06.555Z,13.77
2018-12-13T03:49:36.290Z,13.10
2018-12-13T03:52:05.424Z,13.17
2018-12-13T03:54:34.328Z,12.40
2018-12-13T03:57:03.683Z,11.20
2018-12-13T03:59:32.995Z,13.67
2018-12-13T04:02:01.956Z,13.30
2018-12-13T04:04:30.990Z,14.37
2018-12-13T04:07:00.377Z,16.07
2018-12-13T04:09:29.104Z,11.97
2018-12-13T04:11:58.003Z,11.80
2018-12-13T04:14:27.688Z,12.33
2018-12-13T04:16:56.884Z,14.47
2018-12-13T04:19:25.995Z,13.67
2018-12-13T04:21:54.946Z,15.33
2018-12-13T04:24:23.970Z,14.20
2018-12-13T04:26:52.925Z,15.13
2018-12-13T04:29:22.055Z,13.07
2018-12-13T04:31:50.683Z,16.20
2018-12-13T04:34:19.618Z,13.53
2018-12-13T04:36:48.644Z,14.83
2018-12-13T04:39:17.323Z,14.80
2018-12-13T04:41:46.213Z,12.40
2018-12-13T04:44:15.242Z,14.87
2018-12-13T04:46:44.257Z,13.33
2018-12-13T04:49:13.241Z,17.50
2018-12-13T04:51:42.364Z,16.03
2018-12-13T04:54:12.053Z,13.60
2018-12-13T04:56:40.901Z,13.80
2018-12-13T04:59:09.555Z,16.10
2018-12-13T05:01:38.156Z,15.30
2018-12-13T05:04:07.064Z,13.83
2018-12-13T05:06:36.208Z,16.67
2018-12-13T05:09:08.102Z,15.27
2018-12-13T05:11:37.383Z,16.53
2018-12-13T05:14:06.222Z,17.70
2018-12-13T05:16:35.116Z,17.10
2018-12-13T05:19:04.112Z,17.30
2018-12-13T05:21:33.225Z,15.07
2018-12-13T05:24:02.352Z,19.17
2018-12-13T05:26:31.308Z,17.03
2018-12-13T05:29:00.403Z,16.93
2018-12-13T05:31:29.464Z,16.13
2018-12-13T05:33:58.882Z,17.50
2018-12-13T05:36:27.546Z,17.10
2018-12-13T05:38:56.636Z,18.67
2018-12-13T05:41:25.860Z,19.53
2018-12-13T05:43:54.876Z,18.67
2018-12-13T05:46:23.900Z,16.57
2018-12-13T05:48:52.924Z,22.43
2018-12-13T05:51:21.922Z,20.70
2018-12-13T05:53:50.630Z,21.23
2018-12-13T05:56:19.492Z,21.37
2018-12-13T05:58:48.493Z,24.37
2018-12-13T06:01:17.536Z,21.97
2018-12-13T06:03:47.625Z,22.03
2018-12-13T06:06:16.348Z,23.03
2018-12-13T06:08:45.264Z,26.00
2018-12-13T06:11:13.946Z,21.60
2018-12-13T06:13:42.844Z,20.77
2018-12-13T06:16:11.852Z,22.13
2018-12-13T06:18:40.846Z,23.53
2018-12-13T06:21:11.921Z,27.93
2018-12-13T06:23:40.871Z,25.70
2018-12-13T06:26:09.873Z,24.03
2018-12-13T06:28:38.675Z,23.50
2018-12-13T06:31:07.700Z,22.90
2018-12-13T06:33:36.722Z,21.93
2018-12-13T06:36:05.740Z,22.67
2018-12-13T06:38:34.804Z,26.97
2018-12-13T06:41:04.048Z,12.37
2018-12-13T06:43:33.851Z,22.83
2018-12-13T06:46:03.784Z,25.67
2018-12-13T06:48:32.882Z,22.20
2018-12-13T06:51:01.993Z,25.97
2018-12-13T06:53:30.992Z,24.13
2018-12-13T06:55:59.676Z,24.90
2018-12-13T06:58:28.772Z,26.43
2018-12-13T07:00:57.808Z,20.03
2018-12-13T07:03:26.789Z,23.60
2018-12-13T07:05:56.543Z,26.40
2018-12-13T07:08:25.191Z,27.50
2018-12-13T07:10:54.558Z,25.70
2018-12-13T07:13:23.641Z,24.87
2018-12-13T07:15:52.735Z,33.20
2018-12-13T07:18:21.415Z,26.20
2018-12-13T07:20:50.306Z,20.63
2018-12-13T07:23:18.948Z,28.77
2018-12-13T07:25:47.615Z,26.30
2018-12-13T07:28:16.520Z,24.97
2018-12-13T07:30:45.505Z,25.00
2018-12-13T07:33:14.521Z,25.73
2018-12-13T07:35:43.501Z,26.50
2018-12-13T07:38:14.491Z,29.80
2018-12-13T07:40:43.649Z,24.37
2018-12-13T07:43:12.629Z,26.27
2018-12-13T07:45:41.625Z,23.00
2018-12-13T07:48:10.602Z,24.60
2018-12-13T07:50:39.696Z,18.47
2018-12-13T07:53:08.688Z,22.40
2018-12-13T07:55:37.973Z,22.60
2018-12-13T07:58:06.969Z,19.33
2018-12-13T08:00:35.952Z,22.77
2018-12-13T08:03:05.432Z,24.67
2018-12-13T08:05:34.477Z,21.93
2018-12-13T08:08:03.467Z,24.23
2018-12-13T08:10:32.721Z,23.20
2018-12-13T08:13:01.710Z,22.37
2018-12-13T08:15:30.724Z,20.40
2018-12-13T08:17:59.732Z,19.50
2018-12-13T08:20:29.212Z,22.33
2018-12-13T08:22:57.987Z,18.87
2018-12-13T08:25:26.900Z,19.93
2018-12-13T08:27:56.636Z,19.83
2018-12-13T08:30:25.818Z,17.23
2018-12-13T08:32:54.704Z,22.50
2018-12-13T08:35:23.619Z,22.43
2018-12-13T08:37:52.803Z,17.27
2018-12-13T08:40:22.575Z,19.57
2018-12-13T08:42:51.697Z,19.80
2018-12-13T08:45:20.788Z,18.67
2018-12-13T08:47:49.758Z,18.53
2018-12-13T08:50:18.809Z,19.07
2018-12-13T08:52:47.784Z,21.93
2018-12-13T08:55:16.841Z,18.20
2018-12-13T08:57:45.933Z,15.50
2018-12-13T09:00:14.900Z,18.37
2018-12-13T09:02:43.980Z,17.17
2018-12-13T09:05:12.703Z,15.63
2018-12-13T09:07:41.773Z,19.67
2018-12-13T09:10:10.958Z,19.40
2018-12-13T09:12:40.847Z,17.37
2018-12-13T09:15:10.166Z,19.93
2018-12-13T09:17:39.504Z,14.57
2018-12-13T09:20:08.919Z,17.03
2018-12-13T09:22:37.971Z,17.57
2018-12-13T09:25:06.881Z,20.03
2018-12-13T09:27:35.455Z,19.60
2018-12-13T09:30:05.427Z,18.47
2018-12-13T09:32:34.718Z,17.90
2018-12-13T09:35:04.232Z,18.47
2018-12-13T09:37:32.935Z,18.37
2018-12-13T09:40:01.829Z,19.27
2018-12-13T09:42:30.884Z,17.77
2018-12-13T09:44:59.900Z,20.83
2018-12-13T09:47:28.780Z,20.90
2018-12-13T09:49:58.324Z,20.57
2018-12-13T09:52:27.327Z,24.83
2018-12-13T09:54:55.975Z,18.80
2018-12-13T09:57:25.416Z,18.10
2018-12-13T09:59:54.618Z,22.90
2018-12-13T10:02:23.615Z,24.77
2018-12-13T10:04:52.365Z,21.33
2018-12-13T10:07:20.981Z,19.10
2018-12-13T10:09:50.184Z,17.10
2018-12-13T10:12:19.516Z,16.73
2018-12-13T10:14:48.464Z,21.70
2018-12-13T10:17:17.570Z,19.27
2018-12-13T10:19:46.968Z,16.23
2018-12-13T10:22:16.005Z,22.17
2018-12-13T10:24:45.010Z,15.87
2018-12-13T10:27:13.679Z,17.50
2018-12-13T10:29:43.383Z,22.67
2018-12-13T10:32:12.407Z,18.67
2018-12-13T10:34:41.456Z,20.77
2018-12-13T10:37:10.645Z,17.87
2018-12-13T10:39:44.594Z,20.87
2018-12-13T10:42:13.554Z,16.77
2018-12-13T10:44:43.218Z,17.20
2018-12-13T10:47:12.271Z,14.20
2018-12-13T10:49:41.202Z,15.67
2018-12-13T10:52:10.261Z,19.30
2018-12-13T10:54:39.394Z,15.03
2018-12-13T10:57:08.518Z,17.63
2018-12-13T10:59:37.570Z,16.33
2018-12-13T11:02:11.252Z,21.50
2018-12-13T11:04:40.329Z,16.30
2018-12-13T11:07:09.358Z,16.97
2018-12-13T11:09:38.087Z,17.57
2018-12-13T11:12:07.309Z,13.23
2018-12-13T11:14:36.364Z,14.50
2018-12-13T11:17:05.573Z,15.27
2018-12-13T11:19:34.348Z,19.23
2018-12-13T11:22:03.227Z,13.73
2018-12-13T11:24:32.293Z,15.57
2018-12-13T11:28:09.654Z,12.57
2018-12-13T11:30:39.012Z,9.27
2018-12-13T11:33:08.096Z,11.77
2018-12-13T11:35:36.980Z,15.87
2018-12-13T11:38:05.998Z,13.47
2018-12-13T11:40:35.207Z,20.30
2018-12-13T11:43:04.577Z,14.33
2018-12-13T11:45:33.555Z,18.77
2018-12-13T11:48:02.598Z,13.37
2018-12-13T11:50:31.700Z,17.93
2018-12-13T11:53:00.710Z,13.10
2018-12-13T11:55:37.509Z,14.43
2018-12-13T11:58:12.345Z,13.20
2018-12-13T12:00:41.320Z,12.47
2018-12-13T12:03:10.711Z,13.53
2018-12-13T12:05:39.387Z,11.70
2018-12-13T12:08:08.981Z,15.00
2018-12-13T12:10:39.727Z,14.67
2018-12-13T12:13:08.737Z,18.90
2018-12-13T12:15:37.998Z,12.47
2018-12-13T12:18:06.990Z,14.03
2018-12-13T12:20:41.265Z,13.97
2018-12-13T12:23:10.832Z,13.80
2018-12-13T12:25:40.122Z,10.77
2018-12-13T12:28:09.093Z,13.40
2018-12-13T12:30:38.692Z,10.97
2018-12-13T12:33:07.708Z,14.27
2018-12-13T12:35:36.708Z,11.93
2018-12-13T12:38:05.754Z,12.97
2018-12-13T12:40:34.968Z,12.23
2018-12-13T12:43:04.158Z,13.50
2018-12-13T12:45:33.188Z,11.77
2018-12-13T12:48:02.209Z,21.73
2018-12-13T12:50:31.212Z,14.63
2018-12-13T12:52:59.887Z,15.17
2018-12-13T12:55:28.814Z,14.60
2018-12-13T12:57:57.489Z,19.20
2018-12-13T13:00:26.471Z,12.97
2018-12-13T13:02:55.912Z,13.60
2018-12-13T13:05:25.633Z,14.13
2018-12-13T13:07:54.703Z,14.37
2018-12-13T13:10:23.759Z,12.57
2018-12-13T13:12:52.488Z,15.03
2018-12-13T13:15:21.446Z,12.27
2018-12-13T13:17:50.459Z,12.47
2018-12-13T13:20:19.556Z,13.17
2018-12-13T13:22:48.515Z,11.80
2018-12-13T13:25:17.253Z,10.97
2018-12-13T13:27:46.173Z,17.47
2018-12-13T13:30:14.870Z,16.10
2018-12-13T13:32:43.744Z,15.13
2018-12-13T13:35:12.775Z,14.60
2018-12-13T13:37:41.429Z,15.20
2018-12-13T13:40:10.502Z,15.00
2018-12-13T13:42:40.273Z,18.70
2018-12-13T13:45:09.112Z,17.57
2018-12-13T13:47:37.731Z,14.77
2018-12-13T13:50:07.201Z,20.37
2018-12-13T13:52:36.178Z,17.23
2018-12-13T13:55:05.512Z,17.33
2018-12-13T13:57:34.244Z,17.93
2018-12-13T14:00:03.715Z,19.63
2018-12-13T14:02:32.605Z,17.63
2018-12-13T14:05:02.294Z,20.83
2018-12-13T14:10:06.040Z,18.87
2018-12-13T14:12:35.072Z,25.47
2018-12-13T14:15:03.989Z,18.57
2018-12-13T14:17:33.014Z,23.77
2018-12-13T14:20:02.031Z,18.93
2018-12-13T14:22:31.012Z,15.37
2018-12-13T14:25:00.112Z,19.90
2018-12-13T14:27:29.107Z,19.10
2018-12-13T14:29:58.086Z,21.13
2018-12-13T14:32:27.075Z,19.13
2018-12-13T14:34:57.531Z,18.33
2018-12-13T14:37:26.752Z,18.60
2018-12-13T14:39:55.735Z,20.60
2018-12-13T14:42:24.893Z,23.00
2018-12-13T14:44:54.280Z,21.67
2018-12-13T14:47:22.972Z,23.73
2018-12-13T14:49:52.404Z,22.00
2018-12-13T14:52:21.136Z,25.57
2018-12-13T14:54:50.003Z,23.07
2018-12-13T14:57:19.010Z,20.43
2018-12-13T14:59:47.680Z,25.00
2018-12-13T15:02:16.608Z,23.97
2018-12-13T15:04:46.277Z,28.47
2018-12-13T15:07:15.301Z,21.83
2018-12-13T15:09:50.647Z,21.50
2018-12-13T15:12:15.031Z,22.27
2018-12-13T15:14:43.989Z,22.00
2018-12-13T15:17:13.049Z,27.47
2018-12-13T15:19:42.356Z,23.60
2018-12-13T15:22:11.044Z,26.57
2018-12-13T15:24:40.212Z,23.50
2018-12-13T15:27:09.230Z,22.20
2018-12-13T15:29:38.213Z,19.20
2018-12-13T15:32:06.954Z,22.87
2018-12-13T15:34:36.456Z,22.97
2018-12-13T15:37:05.597Z,22.57
2018-12-13T15:39:34.694Z,23.70
2018-12-13T15:42:05.583Z,24.57
2018-12-13T15:44:34.600Z,21.23
2018-12-13T15:47:03.736Z,26.73
2018-12-13T15:49:32.970Z,22.60
2018-12-13T15:52:01.751Z,24.63
2018-12-13T15:54:30.699Z,28.83
2018-12-13T15:56:59.354Z,25.70
2018-12-13T15:59:28.387Z,29.03
2018-12-13T16:01:57.440Z,24.70
2018-12-13T16:04:26.239Z,24.90
2018-12-13T16:06:55.142Z,26.03
2018-12-13T16:09:23.887Z,25.87
2018-12-13T16:11:52.975Z,25.27
2018-12-13T16:14:21.682Z,32.60
2018-12-13T16:16:51.248Z,24.77
2018-12-13T16:19:20.235Z,25.13
2018-12-13T16:21:49.234Z,22.63
2018-12-13T16:24:18.245Z,25.77
2018-12-13T16:26:47.212Z,27.27
2018-12-13T16:29:16.253Z,23.90
2018-12-13T16:31:45.298Z,24.17
2018-12-13T16:34:14.569Z,25.63
2018-12-13T16:36:43.313Z,24.40
2018-12-13T16:39:12.287Z,25.47
2018-12-13T16:41:41.344Z,21.93
2018-12-13T16:44:10.649Z,27.93
2018-12-13T16:46:39.367Z,23.03
2018-12-13T16:49:07.971Z,24.37
2018-12-13T16:51:37.086Z,20.37
2018-12-13T16:54:06.113Z,23.63
2018-12-13T16:56:34.815Z,25.90
2018-12-13T16:59:03.944Z,23.97
2018-12-13T17:01:33.764Z,23.77
2018-12-13T17:04:02.482Z,22.87
2018-12-13T17:06:31.128Z,27.73
2018-12-13T17:09:00.020Z,22.13
2018-12-13T17:11:29.168Z,21.23
2018-12-13T17:13:58.174Z,27.93
2018-12-13T17:16:27.448Z,21.17
2018-12-13T17:18:56.779Z,28.83
2018-12-13T17:21:25.532Z,29.53
2018-12-13T17:23:54.971Z,27.03
2018-12-13T17:26:23.904Z,28.50
2018-12-13T17:28:52.984Z,22.30
2018-12-13T17:31:21.970Z,25.30
2018-12-13T17:33:52.729Z,19.37
2018-12-13T17:36:21.458Z,25.60
2018-12-13T17:39:06.321Z,26.10
2018-12-13T17:41:35.334Z,28.03
2018-12-13T17:44:04.635Z,26.20
2018-12-13T17:46:33.471Z,30.00
2018-12-13T17:49:02.668Z,26.00
2018-12-13T17:51:32.374Z,25.50
2018-12-13T17:54:01.066Z,23.50
2018-12-13T17:56:30.210Z,25.73
2018-12-13T17:58:58.916Z,28.10
2018-12-13T18:01:27.861Z,26.47
2018-12-13T18:03:56.965Z,23.90
2018-12-13T18:06:25.925Z,29.00
2018-12-13T18:08:54.614Z,23.73
2018-12-13T18:11:24.427Z,25.60
2018-12-13T18:13:56.481Z,29.30
2018-12-13T18:16:26.545Z,26.87
2018-12-13T18:18:56.938Z,27.07
2018-12-13T18:21:26.000Z,26.20
2018-12-13T18:23:55.178Z,20.73
2018-12-13T18:26:24.395Z,24.10
2018-12-13T18:28:53.290Z,22.70
2018-12-13T18:31:23.190Z,23.23
2018-12-13T18:33:52.208Z,21.83
2018-12-13T18:36:21.221Z,27.77
2018-12-13T18:38:49.876Z,22.70
2018-12-13T18:41:18.536Z,25.10
2018-12-13T18:43:47.153Z,28.00
2018-12-13T18:46:16.202Z,31.80
2018-12-13T18:48:44.880Z,25.03
2018-12-13T18:51:13.861Z,23.50
2018-12-13T18:53:42.567Z,30.03
2018-12-13T18:56:11.809Z,23.70
2018-12-13T18:58:41.950Z,26.10
2018-12-13T19:01:11.149Z,21.33
2018-12-13T19:03:39.802Z,27.00
2018-12-13T19:06:08.417Z,17.97
2018-12-13T19:08:37.648Z,22.27
2018-12-13T19:11:07.194Z,24.03
2018-12-13T19:13:35.918Z,24.93
2018-12-13T19:16:04.904Z,24.83
2018-12-13T19:18:33.947Z,25.50
2018-12-13T19:21:02.638Z,26.80
2018-12-13T19:23:31.220Z,28.23
2018-12-13T19:26:00.326Z,26.70
2018-12-13T19:28:29.350Z,25.73
2018-12-13T19:30:58.023Z,26.63
2018-12-13T19:33:26.986Z,23.87
2018-12-13T19:35:56.285Z,25.63
2018-12-13T19:38:25.535Z,25.07
2018-12-13T19:40:54.518Z,26.60
2018-12-13T19:43:23.559Z,25.70
2018-12-13T19:45:52.790Z,32.63
2018-12-13T19:48:22.039Z,26.93
2018-12-13T19:50:51.410Z,28.80
2018-12-13T19:53:20.966Z,32.30
2018-12-13T19:55:49.777Z,27.90
2018-12-13T19:58:18.978Z,26.17
2018-12-13T20:00:48.073Z,28.73
2018-12-13T20:03:17.074Z,29.07
2018-12-13T20:05:47.544Z,26.03
2018-12-13T20:08:18.343Z,28.97
2018-12-13T20:10:47.327Z,27.70
2018-12-13T20:13:16.412Z,29.57
2018-12-13T20:15:45.671Z,30.67
2018-12-13T20:18:15.018Z,29.83
2018-12-13T20:20:44.036Z,29.63
2018-12-13T20:23:13.056Z,25.47
2018-12-13T20:25:42.427Z,13.73
2018-12-13T20:28:11.806Z,27.13
2018-12-13T20:30:40.911Z,25.93
2018-12-13T20:33:10.000Z,30.57
2018-12-13T20:35:39.056Z,26.27
2018-12-13T20:38:08.220Z,20.67
2018-12-13T20:40:37.293Z,23.53
2018-12-13T20:45:41.276Z,24.10
2018-12-13T20:48:10.009Z,29.67
2018-12-13T20:50:39.518Z,26.47
2018-12-13T20:53:08.267Z,26.47
2018-12-13T20:55:37.418Z,24.53
2018-12-13T20:58:06.088Z,27.70
2018-12-13T21:00:37.907Z,29.33
2018-12-13T21:03:06.593Z,23.73
2018-12-13T21:05:35.167Z,28.07
2018-12-13T21:08:08.946Z,41.27
2018-12-13T21:10:38.691Z,19.67
2018-12-13T21:13:07.811Z,29.37
2018-12-13T21:15:36.852Z,22.43
2018-12-13T21:18:05.560Z,21.27
2018-12-13T21:20:34.499Z,24.93
2018-12-13T21:23:03.398Z,21.07
2018-12-13T21:25:32.337Z,28.13
2018-12-13T21:28:01.039Z,21.23
2018-12-13T21:30:31.628Z,15.30
2018-12-13T21:33:00.680Z,24.97
2018-12-13T21:35:29.724Z,23.87
2018-12-13T21:37:59.038Z,22.10
2018-12-13T21:40:28.081Z,24.40
2018-12-13T21:42:57.068Z,23.90
2018-12-13T21:45:26.097Z,22.53
2018-12-13T21:47:54.786Z,21.23
2018-12-13T21:50:23.740Z,22.00
2018-12-13T21:52:58.068Z,23.07
2018-12-13T21:58:10.294Z,25.50
2018-12-13T22:00:38.972Z,26.17
2018-12-13T22:03:07.847Z,24.33
2018-12-13T22:05:36.461Z,27.50
2018-12-13T22:08:05.422Z,23.07
2018-12-13T22:10:34.548Z,31.37
2018-12-13T22:13:03.307Z,27.47
2018-12-13T22:15:32.348Z,21.53
2018-12-13T22:18:02.015Z,27.83
2018-12-13T22:20:30.985Z,26.47
2018-12-13T22:23:00.050Z,26.07
2018-12-13T22:25:29.257Z,25.97
2018-12-13T22:27:58.262Z,29.30
2018-12-13T22:30:26.937Z,23.73
2018-12-13T22:32:59.172Z,26.90
2018-12-13T22:35:28.516Z,24.30
2018-12-13T22:37:57.542Z,25.67
2018-12-13T22:40:26.536Z,25.17
2018-12-13T22:42:55.584Z,27.47
2018-12-13T22:45:24.581Z,26.63
2018-12-13T22:47:53.610Z,26.70
2018-12-13T22:50:22.611Z,24.57
2018-12-13T22:52:51.858Z,25.83
2018-12-13T22:55:20.950Z,28.53
2018-12-13T22:57:50.077Z,25.20
2018-12-13T23:00:24.064Z,27.03
2018-12-13T23:02:53.544Z,23.17
2018-12-13T23:05:22.565Z,16.37
2018-12-13T23:07:51.360Z,25.23
2018-12-13T23:10:20.309Z,28.37
2018-12-13T23:12:49.476Z,24.03
2018-12-13T23:15:18.441Z,18.27
2018-12-13T23:17:47.491Z,26.00
2018-12-13T23:20:16.533Z,22.37
2018-12-13T23:22:45.826Z,24.00
2018-12-13T23:25:14.866Z,29.23
2018-12-13T23:27:43.637Z,27.03
2018-12-13T23:30:13.323Z,27.10
2018-12-13T23:32:43.809Z,26.33
2018-12-13T23:35:12.788Z,25.13
2018-12-13T23:37:41.860Z,24.87
2018-12-13T23:40:10.927Z,25.80
2018-12-13T23:42:39.642Z,27.70
2018-12-13T23:45:09.359Z,30.43
2018-12-13T23:47:38.405Z,27.77
2018-12-13T23:50:07.665Z,22.50
2018-12-13T23:52:36.435Z,28.90
2018-12-13T23:55:06.248Z,32.73
2018-12-13T23:57:34.907Z,31.43
